Time;durP1;ratioP1;P1;durP2;ratioP2;P2;SDS_P1;SDS_P2;PMS_P1;PMS_P2;Temp;Humidity;BMP_temperature;BMP_pressure;BME280_temperature;BME280_humidity;BME280_pressure;Samples;Min_cycle;Max_cycle;Signal;HPM_P1;HPM_P2
2024/01/15 00:00:25;;;;;;;28.75;18.08;;;;;;;0.25;100.00;98985.63;7394679;19;20569;-67
2024/01/15 00:02:53;;;;;;;26.42;16.92;;;;;;;0.26;100.00;98983.03;7394494;19;20031;-68
2024/01/15 00:05:24;;;;;;;26.98;16.05;;;;;;;0.27;100.00;98974.44;7394824;19;20086;-68
2024/01/15 00:07:53;;;;;;;33.03;17.67;;;;;;;0.29;100.00;98971.84;7393279;19;20010;-68
2024/01/15 00:10:21;;;;;;;28.08;16.42;;;;;;;0.33;100.00;98970.97;7394354;19;20015;-68
2024/01/15 00:12:49;;;;;;;29.48;17.13;;;;;;;0.34;100.00;98959.75;7392239;19;20074;-68
2024/01/15 00:15:18;;;;;;;29.13;18.40;;;;;;;0.36;100.00;98952.03;7392726;19;20027;-68
2024/01/15 00:17:46;;;;;;;28.05;16.92;;;;;;;0.36;100.00;98942.53;7393341;19;20016;-68
2024/01/15 00:20:15;;;;;;;27.77;16.80;;;;;;;0.36;100.00;98942.53;7394133;19;20434;-68
2024/01/15 00:22:46;;;;;;;27.17;17.13;;;;;;;0.35;100.00;98942.56;7393621;19;20514;-68
2024/01/15 00:25:14;;;;;;;27.38;16.67;;;;;;;0.30;100.00;98942.59;7394746;19;20080;-67
2024/01/15 00:27:43;;;;;;;25.95;16.00;;;;;;;0.27;100.00;98946.06;7396983;19;20024;-68
2024/01/15 00:30:12;;;;;;;25.98;17.45;;;;;;;0.23;100.00;98943.50;7401687;19;20086;-68
2024/01/15 00:32:41;;;;;;;25.80;16.42;;;;;;;0.21;100.00;98942.69;7401145;19;20011;-67
2024/01/15 00:35:10;;;;;;;26.75;16.10;;;;;;;0.15;100.00;98943.56;7398928;19;20023;-67
2024/01/15 00:37:39;;;;;;;26.88;16.10;;;;;;;0.15;100.00;98941.00;7400662;19;20079;-67
2024/01/15 00:40:11;;;;;;;27.48;16.88;;;;;;;0.12;100.00;98936.72;7403132;19;20018;-67
2024/01/15 00:42:40;;;;;;;28.92;18.13;;;;;;;0.09;100.00;98931.59;7401593;19;20075;-67
2024/01/15 00:45:09;;;;;;;28.20;16.85;;;;;;;0.08;100.00;98923.88;7401225;19;20010;-67
2024/01/15 00:47:37;;;;;;;26.88;16.35;;;;;;;0.06;100.00;98923.88;7401096;19;20019;-67
2024/01/15 00:50:06;;;;;;;30.20;18.13;;;;;;;0.05;100.00;98917.03;7398426;19;20015;-67
2024/01/15 00:52:34;;;;;;;26.38;16.90;;;;;;;0.05;100.00;98911.88;7400287;19;20073;-67
2024/01/15 00:55:03;;;;;;;28.30;17.17;;;;;;;0.04;100.00;98904.13;7398320;19;20089;-67
2024/01/15 00:57:34;;;;;;;23.58;14.98;;;;;;;0.04;100.00;98901.56;7398111;19;20028;-67
2024/01/15 01:00:03;;;;;;;27.02;17.00;;;;;;;0.05;100.00;98895.53;7401220;19;20428;-67
2024/01/15 01:02:31;;;;;;;26.25;16.08;;;;;;;0.05;100.00;98900.69;7400482;19;20074;-67
2024/01/15 01:04:59;;;;;;;25.50;15.05;;;;;;;0.03;100.00;98892.97;7400587;19;20037;-67
2024/01/15 01:07:28;;;;;;;22.02;13.80;;;;;;;0.03;100.00;98898.13;7400527;19;20018;-67
2024/01/15 01:09:56;;;;;;;22.25;15.40;;;;;;;0.06;100.00;98897.25;7400052;19;20082;-67
2024/01/15 01:12:25;;;;;;;20.83;13.80;;;;;;;0.09;100.00;98897.19;7400322;19;20081;-67
2024/01/15 01:14:56;;;;;;;21.90;13.50;;;;;;;0.09;100.00;98900.66;7401953;19;20039;-67
2024/01/15 01:17:24;;;;;;;20.88;13.30;;;;;;;0.10;100.00;98899.78;7399608;19;20549;-67
2024/01/15 01:19:53;;;;;;;22.35;13.75;;;;;;;0.11;100.00;98886.00;7397252;19;20082;-66
2024/01/15 01:22:21;;;;;;;23.23;14.30;;;;;;;0.14;100.00;98892.88;7399541;19;20498;-67
2024/01/15 01:24:50;;;;;;;20.90;13.32;;;;;;;0.14;100.00;98888.56;7397409;19;20039;-67
2024/01/15 01:27:18;;;;;;;22.90;14.73;;;;;;;0.14;100.00;98883.41;7400560;19;20070;-67
2024/01/15 01:29:46;;;;;;;22.38;14.52;;;;;;;0.15;100.00;98882.56;7399381;19;20037;-67
2024/01/15 01:32:17;;;;;;;23.30;14.73;;;;;;;0.13;100.00;98884.28;7399383;19;20082;-67
2024/01/15 01:34:46;;;;;;;20.00;13.23;;;;;;;0.14;100.00;98883.41;7396910;19;20031;-67
2024/01/15 01:37:15;;;;;;;17.15;12.70;;;;;;;0.13;100.00;98876.53;7396961;19;20082;-67
2024/01/15 01:39:44;;;;;;;18.42;12.30;;;;;;;0.11;100.00;98878.28;7395228;19;20011;-67
2024/01/15 01:42:13;;;;;;;18.63;13.57;;;;;;;0.11;100.00;98875.69;7399243;19;20094;-67
2024/01/15 01:44:41;;;;;;;18.45;12.30;;;;;;;0.08;100.00;98875.72;7397088;19;20086;-67
2024/01/15 01:47:10;;;;;;;21.10;13.25;;;;;;;0.09;100.00;98880.03;7398791;19;20018;-67
2024/01/15 01:49:42;;;;;;;24.92;15.27;;;;;;;0.06;100.00;98886.94;7399196;19;20078;-67
2024/01/15 01:52:12;;;;;;;22.60;14.48;;;;;;;0.02;100.00;98883.53;7396931;19;20074;-67
2024/01/15 01:54:43;;;;;;;22.00;15.50;;;;;;;-0.02;100.00;98879.25;7396816;19;20031;-67
2024/01/15 01:57:13;;;;;;;25.17;15.73;;;;;;;-0.10;100.00;98869.03;7399199;19;20423;-67
2024/01/15 01:59:41;;;;;;;22.88;15.40;;;;;;;-0.09;100.00;98867.28;7397061;19;20015;-68
2024/01/15 02:02:10;;;;;;;28.80;16.45;;;;;;;-0.11;100.00;98887.09;7398878;19;20475;-68
2024/01/15 02:04:39;;;;;;;25.45;16.95;;;;;;;-0.12;100.00;98882.78;7396637;19;20092;-67
2024/01/15 02:07:10;;;;;;;28.25;17.13;;;;;;;-0.14;100.00;98884.53;7398523;19;20022;-68
2024/01/15 02:09:38;;;;;;;26.77;16.27;;;;;;;-0.15;100.00;98878.53;7398851;19;20070;-68
2024/01/15 02:12:08;;;;;;;25.83;14.75;;;;;;;-0.17;100.00;98878.50;7398380;19;20015;-68
2024/01/15 02:14:36;;;;;;;24.48;15.18;;;;;;;-0.20;100.00;98881.13;7396260;19;20086;-68
2024/01/15 02:17:05;;;;;;;23.50;14.68;;;;;;;-0.21;100.00;98884.56;7397900;19;20010;-68
2024/01/15 02:19:33;;;;;;;23.95;14.25;;;;;;;-0.23;100.00;98881.16;7396435;19;20066;-68
2024/01/15 02:22:02;;;;;;;24.45;14.68;;;;;;;-0.27;100.00;98873.47;7397674;19;20006;-68
2024/01/15 02:24:33;;;;;;;23.70;14.80;;;;;;;-0.28;100.00;98871.75;7395632;19;20082;-68
2024/01/15 02:27:02;;;;;;;21.45;13.57;;;;;;;-0.30;100.00;98871.75;7397540;19;20514;-68
2024/01/15 02:29:37;;;;;;;23.73;13.88;;;;;;;-0.30;100.00;98869.19;7397813;19;20022;-68
2024/01/15 02:32:07;;;;;;;23.42;14.25;;;;;;;-0.31;100.00;98871.78;7397709;19;20027;-68
2024/01/15 02:34:36;;;;;;;20.70;12.40;;;;;;;-0.34;100.00;98864.94;7395594;19;20525;-68
2024/01/15 02:37:04;;;;;;;19.30;12.88;;;;;;;-0.33;100.00;98871.78;7395730;19;20014;-68
2024/01/15 02:39:35;;;;;;;23.38;13.68;;;;;;;-0.34;100.00;98868.34;7395852;19;20010;-67
2024/01/15 02:42:03;;;;;;;22.70;13.57;;;;;;;-0.36;100.00;98870.06;7398147;19;20426;-68
2024/01/15 02:44:32;;;;;;;23.23;13.15;;;;;;;-0.40;100.00;98865.81;7395632;19;20078;-68
2024/01/15 02:47:00;;;;;;;22.08;12.60;;;;;;;-0.37;100.00;98862.34;7397220;19;20018;-68
2024/01/15 02:49:29;;;;;;;24.65;12.88;;;;;;;-0.39;100.00;98861.50;7396841;19;20083;-68
2024/01/15 02:51:57;;;;;;;25.75;14.27;;;;;;;-0.38;100.00;98868.38;7396669;19;20529;-68
2024/01/15 02:54:25;;;;;;;21.95;13.13;;;;;;;-0.35;100.00;98864.06;7395599;19;20081;-68
2024/01/15 02:56:56;;;;;;;23.52;13.35;;;;;;;-0.35;100.00;98870.94;7398466;19;20071;-68
2024/01/15 02:59:25;;;;;;;21.75;12.65;;;;;;;-0.38;100.00;98873.53;7398601;19;20015;-67
2024/01/15 03:01:53;;;;;;;21.38;12.65;;;;;;;-0.39;100.00;98864.94;7396897;19;20018;-68
2024/01/15 03:04:22;;;;;;;21.73;12.80;;;;;;;-0.38;100.00;98868.38;7397180;19;20019;-68
2024/01/15 03:06:50;;;;;;;20.02;11.60;;;;;;;-0.40;100.00;98868.38;7396069;19;20031;-68
2024/01/15 03:09:19;;;;;;;18.20;10.93;;;;;;;-0.41;100.00;98852.94;7396920;19;20006;-68
2024/01/15 03:11:48;;;;;;;19.20;11.55;;;;;;;-0.42;100.00;98851.22;7396323;19;20010;-68
2024/01/15 03:14:20;;;;;;;19.77;10.80;;;;;;;-0.41;100.00;98850.38;7394823;19;20007;-67
2024/01/15 03:16:48;;;;;;;18.98;10.32;;;;;;;-0.41;100.00;98855.53;7395014;19;20066;-68
2024/01/15 03:19:17;;;;;;;19.67;11.48;;;;;;;-0.41;100.00;98855.53;7395086;19;20006;-69
2024/01/15 03:21:45;;;;;;;16.95;10.95;;;;;;;-0.40;100.00;98857.25;7396121;19;20087;-68
2024/01/15 03:24:13;;;;;;;15.88;9.77;;;;;;;-0.37;100.00;98867.50;7394688;19;20074;-69
2024/01/15 03:26:42;;;;;;;20.05;11.23;;;;;;;-0.37;100.00;98857.22;7395510;19;20549;-69
2024/01/15 03:29:10;;;;;;;15.73;10.18;;;;;;;-0.35;100.00;98865.78;7394228;19;20082;-68
2024/01/15 03:31:41;;;;;;;18.80;10.90;;;;;;;-0.33;100.00;98858.88;7394095;19;20074;-69
2024/01/15 03:34:10;;;;;;;13.90;9.82;;;;;;;-0.30;100.00;98848.56;7393966;19;20019;-69
2024/01/15 03:36:38;;;;;;;20.23;10.90;;;;;;;-0.29;100.00;98834.81;7395703;19;20031;-69
2024/01/15 03:39:07;;;;;;;18.58;10.32;;;;;;;-0.25;100.00;98833.03;7394324;19;20007;-69
2024/01/15 03:41:36;;;;;;;13.40;8.75;;;;;;;-0.24;100.00;98830.47;7395048;19;20374;-68
2024/01/15 03:44:04;;;;;;;16.42;8.60;;;;;;;-0.20;100.00;98829.56;7394199;19;20014;-68
2024/01/15 03:46:33;;;;;;;13.38;8.95;;;;;;;-0.18;100.00;98824.41;7395393;19;20014;-68
2024/01/15 03:49:04;;;;;;;12.65;8.43;;;;;;;-0.19;100.00;98825.25;7394988;19;20498;-68
2024/01/15 03:51:32;;;;;;;15.00;9.15;;;;;;;-0.16;100.00;98825.25;7395582;19;20024;-68
2024/01/15 03:54:00;;;;;;;14.18;9.25;;;;;;;-0.16;100.00;98807.22;7393567;19;20078;-68
2024/01/15 03:56:29;;;;;;;12.23;7.50;;;;;;;-0.13;100.00;98819.22;7394731;19;20086;-69
2024/01/15 03:58:57;;;;;;;10.32;7.35;;;;;;;-0.12;100.00;98828.66;7394344;19;20035;-69
2024/01/15 04:01:26;;;;;;;10.57;6.82;;;;;;;-0.10;100.00;98826.91;7396794;19;20014;-68
2024/01/15 04:03:54;;;;;;;15.85;7.38;;;;;;;-0.08;100.00;98822.59;7400242;19;20380;-68
2024/01/15 04:06:25;;;;;;;13.43;6.53;;;;;;;-0.08;100.00;98843.22;7402280;19;20087;-69
2024/01/15 04:08:53;;;;;;;11.15;6.88;;;;;;;-0.07;100.00;98829.47;7402297;19;20503;-69
2024/01/15 04:11:22;;;;;;;12.25;6.57;;;;;;;-0.07;100.00;98822.56;7401967;19;20006;-69
2024/01/15 04:13:50;;;;;;;14.00;6.88;;;;;;;-0.04;100.00;98819.13;7400497;19;20095;-68
2024/01/15 04:16:20;;;;;;;13.93;7.50;;;;;;;-0.02;100.00;98812.22;7401757;19;20496;-68
2024/01/15 04:18:48;;;;;;;12.60;6.55;;;;;;;0.01;100.00;98817.34;7400998;19;20386;-69
2024/01/15 04:21:16;;;;;;;11.20;6.10;;;;;;;0.04;100.00;98817.34;7402412;19;20011;-69
2024/01/15 04:23:47;;;;;;;10.75;6.30;;;;;;;0.04;100.00;98822.50;7399149;19;20029;-69
2024/01/15 04:26:16;;;;;;;12.60;6.45;;;;;;;0.02;100.00;98808.75;7402376;19;20074;-68
2024/01/15 04:28:44;;;;;;;12.82;6.47;;;;;;;0.05;100.00;98829.38;7401500;19;20086;-69
2024/01/15 04:31:22;;;;;;;15.05;6.45;;;;;;;0.07;100.00;98822.44;7401411;19;20605;-68
2024/01/15 04:33:51;;;;;;;8.70;5.82;;;;;;;0.08;100.00;98811.25;7398570;19;20482;-69
2024/01/15 04:36:19;;;;;;;13.40;6.05;;;;;;;0.11;100.00;98807.81;7401329;19;20027;-69
2024/01/15 04:38:50;;;;;;;10.77;5.65;;;;;;;0.13;100.00;98811.22;7400431;19;20074;-68
2024/01/15 04:41:19;;;;;;;14.45;5.78;;;;;;;0.18;100.00;98804.28;7398294;19;20007;-68
2024/01/15 04:43:47;;;;;;;10.13;5.65;;;;;;;0.19;100.00;98811.16;7399081;19;20427;-68
2024/01/15 04:46:16;;;;;;;11.00;5.32;;;;;;;0.20;100.00;98793.97;7401180;19;20027;-68
2024/01/15 04:48:44;;;;;;;10.90;5.22;;;;;;;0.20;100.00;98792.22;7401161;19;20074;-68
2024/01/15 04:51:12;;;;;;;11.55;5.70;;;;;;;0.22;100.00;98789.66;7398314;19;20078;-69
2024/01/15 04:53:41;;;;;;;10.43;5.15;;;;;;;0.23;100.00;98796.50;7398023;19;20473;-69
2024/01/15 04:56:12;;;;;;;11.02;5.63;;;;;;;0.23;100.00;98794.78;7397804;19;20439;-68
2024/01/15 04:58:40;;;;;;;12.07;5.50;;;;;;;0.25;100.00;98795.63;7400624;19;20069;-68
2024/01/15 05:01:10;;;;;;;11.95;5.07;;;;;;;0.26;100.00;98792.16;7400076;19;20524;-68
2024/01/15 05:03:39;;;;;;;9.68;4.10;;;;;;;0.24;100.00;98793.91;7399486;19;20017;-68
2024/01/15 05:06:08;;;;;;;11.35;4.88;;;;;;;0.28;100.00;98794.75;7399905;19;20442;-68
2024/01/15 05:08:36;;;;;;;9.65;5.47;;;;;;;0.27;100.00;98788.72;7397511;19;20010;-68
2024/01/15 05:11:05;;;;;;;13.30;5.60;;;;;;;0.27;100.00;98786.13;7400083;19;20029;-67
2024/01/15 05:13:36;;;;;;;9.38;5.82;;;;;;;0.28;100.00;98789.59;7395757;19;20074;-67
2024/01/15 05:16:05;;;;;;;11.45;5.18;;;;;;;0.29;100.00;98784.41;7403367;19;20018;-68
2024/01/15 05:18:40;;;;;;;12.30;5.60;;;;;;;0.29;100.00;98797.28;7399876;19;20010;-68
2024/01/15 05:21:15;;;;;;;8.90;4.97;;;;;;;0.30;100.00;98793.84;7400704;19;20064;-68
2024/01/15 05:23:44;;;;;;;12.38;4.97;;;;;;;0.29;100.00;98809.31;7398807;19;20162;-68
2024/01/15 05:26:12;;;;;;;11.23;4.57;;;;;;;0.27;100.00;98806.75;7396936;19;20010;-68
2024/01/15 05:28:43;;;;;;;7.63;4.07;;;;;;;0.29;100.00;98791.25;7397134;19;20070;-68
2024/01/15 05:31:12;;;;;;;9.32;4.30;;;;;;;0.27;100.00;98796.44;7397582;19;20090;-67
2024/01/15 05:33:40;;;;;;;9.60;4.20;;;;;;;0.28;100.00;98805.06;7396361;19;20078;-68
2024/01/15 05:36:09;;;;;;;8.52;3.95;;;;;;;0.29;100.00;98794.72;7399699;19;20259;-68
2024/01/15 05:38:37;;;;;;;6.95;3.17;;;;;;;0.30;100.00;98792.97;7398556;19;20498;-67
2024/01/15 05:41:07;;;;;;;11.40;3.70;;;;;;;0.29;100.00;98792.13;7396674;19;20074;-68
2024/01/15 05:43:36;;;;;;;10.93;3.83;;;;;;;0.31;100.00;98795.53;7397126;19;20078;-67
2024/01/15 05:46:07;;;;;;;8.75;3.60;;;;;;;0.31;100.00;98789.53;7398663;19;20014;-68
2024/01/15 05:48:35;;;;;;;14.43;3.40;;;;;;;0.31;100.00;98784.38;7399512;19;20363;-68
2024/01/15 05:51:04;;;;;;;10.55;3.60;;;;;;;0.32;100.00;98775.78;7398986;19;20082;-68
2024/01/15 05:53:33;;;;;;;10.32;3.65;;;;;;;0.32;100.00;98784.34;7397693;19;20026;-69
2024/01/15 05:56:01;;;;;;;13.65;5.75;;;;;;;0.33;100.00;98787.81;7397421;19;20482;-67
2024/01/15 05:58:29;;;;;;;14.10;7.18;;;;;;;0.30;100.00;98788.69;7398083;19;20167;-68
2024/01/15 06:00:58;;;;;;;15.80;8.45;;;;;;;0.25;100.00;98780.16;7394654;19;20074;-68
2024/01/15 06:03:30;;;;;;;12.52;7.75;;;;;;;0.21;100.00;98772.47;7396845;19;20015;-69
2024/01/15 06:05:58;;;;;;;15.25;9.18;;;;;;;0.18;100.00;98762.16;7396518;19;20014;-68
2024/01/15 06:08:27;;;;;;;17.15;8.93;;;;;;;0.13;100.00;98759.66;7397872;19;20451;-68
2024/01/15 06:10:56;;;;;;;17.23;10.20;;;;;;;0.10;100.00;98773.44;7395846;19;20407;-68
2024/01/15 06:13:24;;;;;;;14.98;9.48;;;;;;;0.06;100.00;98763.16;7396843;19;20018;-68
2024/01/15 06:15:52;;;;;;;18.85;10.10;;;;;;;0.00;100.00;98766.69;7397314;19;20081;-68
2024/01/15 06:18:21;;;;;;;21.95;9.35;;;;;;;-0.02;100.00;98758.94;7397748;19;20031;-68
2024/01/15 06:20:52;;;;;;;18.73;9.27;;;;;;;-0.03;100.00;98753.81;7395248;19;20066;-68
2024/01/15 06:23:20;;;;;;;17.17;9.48;;;;;;;-0.03;100.00;98758.97;7394679;19;20011;-67
2024/01/15 06:25:49;;;;;;;16.13;8.95;;;;;;;-0.05;100.00;98755.53;7395468;19;20023;-68
2024/01/15 06:28:17;;;;;;;14.52;9.07;;;;;;;-0.04;100.00;98754.66;7397463;19;20010;-68
2024/01/15 06:30:46;;;;;;;14.65;8.95;;;;;;;-0.03;100.00;98764.13;7397585;19;20019;-68
2024/01/15 06:33:14;;;;;;;15.30;8.80;;;;;;;-0.03;100.00;98764.13;7396777;19;20014;-68
2024/01/15 06:35:43;;;;;;;18.23;8.70;;;;;;;-0.03;100.00;98766.69;7395538;19;20097;-68
2024/01/15 06:38:14;;;;;;;14.45;7.82;;;;;;;-0.05;100.00;98768.41;7396742;19;20031;-68
2024/01/15 06:40:45;;;;;;;12.40;6.95;;;;;;;-0.04;100.00;98767.56;7395230;19;20023;-68
2024/01/15 06:43:13;;;;;;;15.00;6.95;;;;;;;-0.01;100.00;98776.13;7395527;19;20018;-68
2024/01/15 06:45:42;;;;;;;17.17;6.40;;;;;;;0.03;100.00;98778.69;7396741;19;20074;-68
2024/01/15 06:48:12;;;;;;;14.13;6.72;;;;;;;0.04;100.00;98785.53;7394628;19;20014;-68
2024/01/15 06:50:41;;;;;;;15.35;6.40;;;;;;;0.05;100.00;98790.69;7395167;19;20014;-68
2024/01/15 06:53:09;;;;;;;15.50;6.03;;;;;;;0.09;100.00;98794.06;7395557;19;20481;-68
2024/01/15 06:55:41;;;;;;;10.07;5.28;;;;;;;0.12;100.00;98794.88;7396945;19;20078;-69
2024/01/15 06:58:09;;;;;;;12.95;5.47;;;;;;;0.19;100.00;98813.75;7396581;19;20027;-69
2024/01/15 07:00:37;;;;;;;8.73;4.53;;;;;;;0.27;100.00;98804.19;7394499;19;20074;-69
2024/01/15 07:03:07;;;;;;;13.10;4.13;;;;;;;0.35;100.00;98793.78;7395888;19;20090;-68
2024/01/15 07:05:37;;;;;;;12.10;3.75;;;;;;;0.45;100.00;98808.28;7396870;19;20034;-69
2024/01/15 07:08:06;;;;;;;10.20;3.60;;;;;;;0.46;97.33;98803.97;7397089;19;20018;-67
2024/01/15 07:10:34;;;;;;;8.70;3.25;;;;;;;0.52;96.53;98801.34;7396218;19;20014;-68
2024/01/15 07:13:05;;;;;;;9.43;3.35;;;;;;;0.56;97.92;98790.09;7395376;19;20027;-68
2024/01/15 07:15:34;;;;;;;12.05;3.72;;;;;;;0.60;100.00;98794.34;7396700;19;20070;-68
2024/01/15 07:18:02;;;;;;;13.23;3.17;;;;;;;0.61;97.55;98795.22;7395540;19;20017;-68
2024/01/15 07:20:31;;;;;;;12.27;3.58;;;;;;;0.63;98.54;98814.09;7394998;19;20090;-67
2024/01/15 07:22:59;;;;;;;12.50;3.70;;;;;;;0.64;96.49;98811.50;7395519;19;20016;-68
2024/01/15 07:25:28;;;;;;;9.88;3.30;;;;;;;0.69;100.00;98795.94;7395132;19;20163;-68
2024/01/15 07:27:56;;;;;;;12.23;4.07;;;;;;;0.67;99.75;98796.84;7394171;19;20014;-67
2024/01/15 07:30:27;;;;;;;10.18;3.83;;;;;;;0.70;100.00;98807.97;7395124;19;20477;-68
2024/01/15 07:32:56;;;;;;;8.70;3.58;;;;;;;0.71;96.94;98807.13;7396897;19;20066;-68
2024/01/15 07:35:24;;;;;;;9.40;3.67;;;;;;;0.73;97.68;98817.41;7392861;19;20415;-68
2024/01/15 07:37:53;;;;;;;11.70;4.00;;;;;;;0.75;100.00;98793.28;7393429;19;20078;-68
2024/01/15 07:40:21;;;;;;;7.35;3.30;;;;;;;0.75;98.06;98811.34;7394419;19;20023;-67
2024/01/15 07:42:50;;;;;;;13.13;3.55;;;;;;;0.77;100.00;98811.34;7394264;19;20066;-68
2024/01/15 07:45:18;;;;;;;15.90;5.00;;;;;;;0.78;99.53;98829.41;7393133;19;20078;-68
2024/01/15 07:47:49;;;;;;;14.20;4.15;;;;;;;0.78;100.00;98823.38;7395448;19;20078;-68
2024/01/15 07:50:18;;;;;;;10.30;3.75;;;;;;;0.78;98.38;98828.53;7395473;19;20014;-68
2024/01/15 07:52:46;;;;;;;7.22;3.55;;;;;;;0.79;98.17;98820.75;7394383;19;20078;-68
2024/01/15 07:55:14;;;;;;;14.43;3.97;;;;;;;0.77;98.04;98826.81;7394165;19;20082;-67
2024/01/15 07:57:43;;;;;;;10.55;3.42;;;;;;;0.79;98.38;98831.09;7392785;19;20007;-68
2024/01/15 08:00:12;;;;;;;10.00;3.88;;;;;;;0.81;99.73;98826.78;7392950;19;20089;-68
2024/01/15 08:02:41;;;;;;;6.85;2.85;;;;;;;0.81;97.10;98838.84;7392697;19;20074;-68
2024/01/15 08:05:12;;;;;;;11.70;3.40;;;;;;;0.83;99.25;98831.91;7394283;19;20081;-68
2024/01/15 08:07:40;;;;;;;13.93;3.22;;;;;;;0.86;99.13;98836.19;7394692;19;20014;-67
2024/01/15 08:10:09;;;;;;;7.22;2.80;;;;;;;0.87;100.00;98830.16;7392030;19;20082;-69
2024/01/15 08:12:38;;;;;;;8.40;3.03;;;;;;;0.89;96.87;98823.25;7394116;19;20074;-67
2024/01/15 08:15:07;;;;;;;6.28;3.13;;;;;;;0.90;97.88;98833.56;7393711;19;20474;-67
2024/01/15 08:17:36;;;;;;;8.85;3.08;;;;;;;0.93;97.96;98827.50;7393613;19;20477;-67
2024/01/15 08:20:05;;;;;;;6.50;3.15;;;;;;;0.92;95.42;98833.53;7393926;19;20014;-67
2024/01/15 08:22:36;;;;;;;5.93;2.97;;;;;;;0.95;98.41;98836.09;7393799;19;20010;-67
2024/01/15 08:25:05;;;;;;;7.13;2.90;;;;;;;0.97;97.07;98844.63;7394620;19;20014;-66
2024/01/15 08:27:33;;;;;;;10.98;3.80;;;;;;;0.98;100.00;98829.13;7392238;19;20082;-66
2024/01/15 08:30:10;;;;;;;15.23;3.80;;;;;;;0.97;97.94;98834.31;7393845;19;20031;-66
2024/01/15 08:32:42;;;;;;;14.98;3.70;;;;;;;0.98;98.87;98839.44;7393500;19;20078;-66
2024/01/15 08:35:10;;;;;;;12.07;3.65;;;;;;;1.00;99.61;98833.41;7391760;19;20035;-66
2024/01/15 08:37:41;;;;;;;11.80;3.83;;;;;;;0.98;97.82;98823.94;7393963;19;20015;-67
2024/01/15 08:40:32;;;;;;;7.45;3.38;;;;;;;0.99;97.68;98827.41;7393116;19;20007;-66
2024/01/15 08:43:01;;;;;;;9.77;3.88;;;;;;;1.02;100.00;98837.69;7391526;19;20010;-69
2024/01/15 08:45:30;;;;;;;11.05;3.35;;;;;;;1.04;100.00;98838.53;7393236;19;20010;-67
2024/01/15 08:47:58;;;;;;;12.57;4.05;;;;;;;1.03;100.00;98836.81;7397038;19;20029;-66
2024/01/15 08:50:27;;;;;;;11.98;4.75;;;;;;;1.03;98.68;98829.06;7398343;19;20015;-67
2024/01/15 08:52:58;;;;;;;6.40;4.00;;;;;;;1.06;99.20;98843.66;7399645;19;20511;-67
2024/01/15 08:55:26;;;;;;;7.22;3.70;;;;;;;1.05;97.65;98863.50;7400658;19;20017;-66
2024/01/15 08:57:55;;;;;;;13.05;3.85;;;;;;;1.07;100.00;98851.38;7398209;19;20528;-66
2024/01/15 09:00:23;;;;;;;6.13;3.28;;;;;;;1.03;96.50;98838.56;7399797;19;20099;-66
2024/01/15 09:02:52;;;;;;;9.90;3.58;;;;;;;1.04;96.47;98853.19;7397187;19;20334;-67
2024/01/15 09:05:20;;;;;;;8.93;3.60;;;;;;;1.06;99.23;98848.84;7397719;19;20077;-66
2024/01/15 09:07:51;;;;;;;7.40;3.42;;;;;;;1.06;98.87;98857.44;7399715;19;20506;-67
2024/01/15 09:10:22;;;;;;;7.90;3.05;;;;;;;1.07;99.58;98850.53;7396954;19;20028;-66
2024/01/15 09:12:51;;;;;;;9.15;3.42;;;;;;;1.10;99.31;98851.34;7399976;19;20021;-66
2024/01/15 09:15:20;;;;;;;10.13;3.30;;;;;;;1.11;96.53;98863.41;7397313;19;20024;-67
2024/01/15 09:17:48;;;;;;;10.15;4.00;;;;;;;1.13;96.68;98851.31;7397361;19;20019;-66
2024/01/15 09:20:18;;;;;;;8.15;3.97;;;;;;;1.16;98.28;98862.47;7399207;19;20011;-66
2024/01/15 09:22:46;;;;;;;10.20;3.28;;;;;;;1.19;96.93;98865.88;7398849;19;20018;-68
2024/01/15 09:25:15;;;;;;;11.75;4.47;;;;;;;1.20;94.32;98858.97;7398781;19;20433;-67
2024/01/15 09:27:46;;;;;;;9.07;3.85;;;;;;;1.25;97.60;98857.19;7396506;19;20027;-67
2024/01/15 09:30:15;;;;;;;5.07;2.83;;;;;;;1.28;96.72;98846.81;7399266;19;20031;-67
2024/01/15 09:32:43;;;;;;;6.25;3.65;;;;;;;1.31;94.66;98859.69;7398612;19;20014;-67
2024/01/15 09:35:12;;;;;;;5.47;2.88;;;;;;;1.32;93.54;98868.31;7397227;19;20427;-67
2024/01/15 09:37:42;;;;;;;7.60;3.13;;;;;;;1.33;94.34;98873.44;7398916;19;20524;-67
2024/01/15 09:40:15;;;;;;;9.65;3.13;;;;;;;1.35;93.29;98879.41;7398585;19;20017;-68
2024/01/15 09:42:47;;;;;;;7.70;4.00;;;;;;;1.37;94.36;98874.25;7397627;19;20442;-67
2024/01/15 09:45:16;;;;;;;12.25;4.30;;;;;;;1.38;96.16;98879.41;7399329;19;20018;-68
2024/01/15 09:47:46;;;;;;;11.57;3.97;;;;;;;1.37;93.88;98882.84;7399732;19;20081;-68
2024/01/15 09:50:15;;;;;;;9.18;3.50;;;;;;;1.36;93.02;98862.22;7398264;19;20007;-68
2024/01/15 09:52:44;;;;;;;8.70;3.97;;;;;;;1.36;95.38;98855.28;7398027;19;20091;-66
2024/01/15 09:55:13;;;;;;;10.40;3.65;;;;;;;1.35;93.80;98855.31;7397751;19;20018;-66
2024/01/15 09:57:42;;;;;;;6.13;3.13;;;;;;;1.36;95.71;98855.28;7398151;19;20010;-67
2024/01/15 10:00:14;;;;;;;7.47;3.33;;;;;;;1.35;92.20;98851.00;7396800;19;20023;-67
2024/01/15 10:02:43;;;;;;;9.25;3.30;;;;;;;1.38;97.10;98858.72;7398544;19;20370;-66
2024/01/15 10:05:11;;;;;;;6.63;2.95;;;;;;;1.38;93.80;98863.88;7396230;19;20070;-66
2024/01/15 10:07:41;;;;;;;6.35;3.33;;;;;;;1.39;93.96;98844.94;7398419;19;20086;-65
2024/01/15 10:10:10;;;;;;;11.65;4.22;;;;;;;1.38;92.19;98869.06;7397964;19;20013;-66
2024/01/15 10:12:39;;;;;;;7.20;3.20;;;;;;;1.41;94.83;98850.91;7396584;19;20418;-66
2024/01/15 10:15:08;;;;;;;8.50;2.92;;;;;;;1.43;95.44;98846.59;7397169;19;20082;-67
2024/01/15 10:17:40;;;;;;;6.38;3.03;;;;;;;1.45;97.34;98860.34;7398314;19;20073;-67
2024/01/15 10:20:12;;;;;;;6.38;2.95;;;;;;;1.44;93.60;98843.13;7397843;19;20065;-66
2024/01/15 10:22:43;;;;;;;8.15;3.30;;;;;;;1.45;95.60;98843.97;7395874;19;20033;-66
2024/01/15 10:25:16;;;;;;;7.30;2.78;;;;;;;1.45;94.45;98850.00;7398055;19;20011;-68
2024/01/15 10:27:44;;;;;;;8.95;3.47;;;;;;;1.47;96.94;98834.47;7397327;19;20017;-67
2024/01/15 10:30:14;;;;;;;9.52;2.72;;;;;;;1.45;95.53;98836.22;7397622;19;20028;-67
2024/01/15 10:33:00;;;;;;;6.03;2.70;;;;;;;1.45;95.45;98838.81;7397033;19;20559;-67
2024/01/15 10:35:30;;;;;;;8.48;3.63;;;;;;;1.42;95.38;98868.13;7395440;19;20358;-67
2024/01/15 10:37:59;;;;;;;7.57;2.83;;;;;;;1.45;95.28;98850.00;7397144;19;20033;-67
2024/01/15 10:40:27;;;;;;;6.53;3.08;;;;;;;1.47;97.86;98847.41;7397307;19;20031;-67
2024/01/15 10:42:56;;;;;;;4.18;2.63;;;;;;;1.50;94.95;98843.91;7396829;19;20018;-66
2024/01/15 10:45:25;;;;;;;6.82;3.00;;;;;;;1.51;93.66;98863.72;7397032;19;20070;-66
2024/01/15 10:47:58;;;;;;;8.18;2.80;;;;;;;1.55;94.79;98832.59;7396999;19;20011;-66
2024/01/15 10:50:27;;;;;;;7.13;2.73;;;;;;;1.59;96.11;98849.81;7395162;19;20010;-66
2024/01/15 10:52:56;;;;;;;8.05;3.25;;;;;;;1.60;94.58;98860.97;7395776;19;21080;-66
2024/01/15 10:55:26;;;;;;;8.75;3.15;;;;;;;1.65;96.24;98848.84;7396664;19;20018;-65
2024/01/15 10:57:56;;;;;;;7.60;2.63;;;;;;;1.65;94.76;98835.91;7395235;19;20074;-66
2024/01/15 11:00:25;;;;;;;7.57;2.58;;;;;;;1.67;94.98;98838.47;7396997;19;20014;-66
2024/01/15 11:02:57;;;;;;;5.90;2.72;;;;;;;1.63;94.66;98846.28;7395179;19;20082;-67
2024/01/15 11:05:26;;;;;;;8.63;4.22;;;;;;;1.63;97.19;98843.69;7394791;19;20007;-66
2024/01/15 11:07:59;;;;;;;11.68;2.80;;;;;;;1.59;97.14;98842.03;7395324;19;20010;-66
2024/01/15 11:10:41;;;;;;;6.38;2.90;;;;;;;1.53;95.29;98846.44;7395318;19;20018;-66
2024/01/15 11:13:12;;;;;;;7.38;3.05;;;;;;;1.50;98.14;98843.91;7395552;19;20429;-66
2024/01/15 11:15:59;;;;;;;9.90;3.38;;;;;;;1.43;97.64;98846.59;7393871;19;20017;-66
2024/01/15 11:18:34;;;;;;;6.40;3.60;;;;;;;1.35;98.38;98870.81;7394012;19;20011;-66
2024/01/15 11:21:32;;;;;;;5.72;3.42;;;;;;;1.28;100.00;98857.16;7394181;19;20006;-66
2024/01/15 11:24:02;;;;;;;5.72;3.17;;;;;;;1.23;100.00;98856.38;7393742;19;20011;-66
2024/01/15 11:26:35;;;;;;;8.02;3.00;;;;;;;1.16;100.00;98858.16;7396574;19;20031;-65
2024/01/15 11:29:05;;;;;;;4.03;3.10;;;;;;;1.08;100.00;98868.59;7394067;19;20011;-66
2024/01/15 11:32:04;;;;;;;7.80;3.72;;;;;;;0.97;100.00;98854.97;7394135;19;20007;-67
2024/01/15 11:35:01;;;;;;;9.20;3.85;;;;;;;0.86;100.00;98862.00;7393820;19;20018;-66
2024/01/15 11:37:31;;;;;;;6.32;3.97;;;;;;;0.79;100.00;98856.06;7395634;19;20021;-66